createdAt,value
2018-05-02T00:00:41.183Z,1002.10
2018-05-02T00:01:41.250Z,1002.13
2018-05-02T00:02:41.276Z,1002.20
2018-05-02T00:03:41.220Z,1002.17
2018-05-02T00:04:41.237Z,1002.18
2018-05-02T00:05:41.304Z,1002.16
2018-05-02T00:06:41.331Z,1002.12
2018-05-02T00:07:41.227Z,1002.11
2018-05-02T00:08:41.360Z,1002.13
2018-05-02T00:09:41.274Z,1002.10
2018-05-02T00:10:41.421Z,1002.15
2018-05-02T00:11:41.270Z,1002.15
2018-05-02T00:12:41.310Z,1002.16
2018-05-02T00:13:41.334Z,1002.14
2018-05-02T00:14:41.392Z,1002.11
2018-05-02T00:15:41.284Z,1002.15
2018-05-02T00:16:41.311Z,1002.14
2018-05-02T00:17:41.336Z,1002.19
2018-05-02T00:18:41.352Z,1002.12
2018-05-02T00:19:41.315Z,1002.08
2018-05-02T00:20:41.362Z,1002.06
2018-05-02T00:21:41.345Z,1002.07
2018-05-02T00:22:41.367Z,1002.10
2018-05-02T00:24:41.497Z,1002.08
2018-05-02T00:26:41.375Z,1002.04
2018-05-02T00:27:41.377Z,1002.03
2018-05-02T00:28:41.481Z,1002.08
2018-05-02T00:29:41.494Z,1002.11
2018-05-02T00:30:41.429Z,1002.11
2018-05-02T00:31:41.515Z,1002.10
2018-05-02T00:32:41.488Z,1002.11
2018-05-02T00:33:41.451Z,1002.06
2018-05-02T00:34:41.520Z,1002.07
2018-05-02T00:35:41.502Z,1002.03
2018-05-02T00:36:41.447Z,1002.04
2018-05-02T00:37:41.520Z,1001.98
2018-05-02T00:38:41.476Z,1002.05
2018-05-02T00:40:41.492Z,1002.07
2018-05-02T00:41:41.507Z,1002.07
2018-05-02T00:42:41.504Z,1002.12
2018-05-02T00:43:41.518Z,1002.16
2018-05-02T00:44:41.516Z,1002.17
2018-05-02T00:45:41.533Z,1002.14
2018-05-02T00:46:41.538Z,1002.15
2018-05-02T00:47:41.538Z,1002.20
2018-05-02T00:48:41.538Z,1002.20
2018-05-02T00:49:41.562Z,1002.21
2018-05-02T00:50:41.573Z,1002.19
2018-05-02T00:51:41.559Z,1002.18
2018-05-02T00:53:41.590Z,1002.16
2018-05-02T00:54:41.589Z,1002.18
2018-05-02T00:55:42.113Z,1002.18
2018-05-02T00:56:41.601Z,1002.18
2018-05-02T00:57:41.696Z,1002.12
2018-05-02T00:58:41.689Z,1002.11
2018-05-02T00:59:41.627Z,1002.09
2018-05-02T01:00:41.670Z,1002.09
2018-05-02T01:01:41.671Z,1002.12
2018-05-02T01:02:41.642Z,1002.08
2018-05-02T01:03:41.650Z,1002.08
2018-05-02T01:04:41.693Z,1002.08
2018-05-02T01:05:42.049Z,1002.11
2018-05-02T01:06:41.665Z,1002.10
2018-05-02T01:07:41.681Z,1002.10
2018-05-02T01:08:41.685Z,1002.11
2018-05-02T01:09:41.686Z,1002.13
2018-05-02T01:10:41.706Z,1002.07
2018-05-02T01:11:41.695Z,1002.10
2018-05-02T01:12:41.719Z,1002.08
2018-05-02T01:13:41.713Z,1002.04
2018-05-02T01:14:41.751Z,1002.07
2018-05-02T01:15:41.769Z,1002.08
2018-05-02T01:16:41.757Z,1002.11
2018-05-02T01:17:41.749Z,1002.09
2018-05-02T01:18:41.750Z,1002.09
2018-05-02T01:19:41.779Z,1002.05
2018-05-02T01:20:41.917Z,1002.07
2018-05-02T01:21:41.880Z,1002.14
2018-05-02T01:22:41.866Z,1002.11
2018-05-02T01:23:41.883Z,1002.04
2018-05-02T01:24:41.795Z,1002.04
2018-05-02T01:25:41.804Z,1002.09
2018-05-02T01:26:42.024Z,1002.03
2018-05-02T01:27:41.816Z,1002.05
2018-05-02T01:28:41.827Z,1002.04
2018-05-02T01:30:03.011Z,1002.06
2018-05-02T01:30:41.850Z,1002.04
2018-05-02T01:31:41.903Z,1002.00
2018-05-02T01:32:41.869Z,1002.04
2018-05-02T01:33:41.883Z,1002.04
2018-05-02T01:34:42.013Z,1002.05
2018-05-02T01:35:41.874Z,1002.05
2018-05-02T01:36:41.882Z,1002.06
2018-05-02T01:37:41.878Z,1002.02
2018-05-02T01:38:41.896Z,1002.03
2018-05-02T01:39:41.903Z,1002.05
2018-05-02T01:40:41.908Z,1002.05
2018-05-02T01:41:42.025Z,1002.06
2018-05-02T01:42:41.925Z,1002.02
2018-05-02T01:43:41.930Z,1002.01
2018-05-02T01:44:41.945Z,1002.01
2018-05-02T01:45:41.952Z,1002.04
2018-05-02T01:46:41.961Z,1002.04
2018-05-02T01:47:41.970Z,1002.02
2018-05-02T01:48:41.965Z,1002.08
2018-05-02T01:49:42.023Z,1002.07
2018-05-02T01:50:42.055Z,1002.07
2018-05-02T01:51:41.990Z,1002.09
2018-05-02T01:52:42.026Z,1002.09
2018-05-02T01:53:42.008Z,1002.11
2018-05-02T01:54:42.020Z,1002.15
2018-05-02T01:55:42.040Z,1002.11
2018-05-02T01:56:42.046Z,1002.11
2018-05-02T01:57:42.138Z,1002.10
2018-05-02T01:58:42.139Z,1002.05
2018-05-02T01:59:42.047Z,1001.98
2018-05-02T02:00:42.046Z,1001.91
2018-05-02T02:01:42.056Z,1001.87
2018-05-02T02:02:42.062Z,1001.81
2018-05-02T02:03:42.071Z,1001.82
2018-05-02T02:04:42.090Z,1001.82
2018-05-02T02:05:42.134Z,1001.85
2018-05-02T02:06:42.091Z,1001.83
2018-05-02T02:07:42.100Z,1001.80
2018-05-02T02:08:42.113Z,1001.76
2018-05-02T02:09:42.123Z,1001.80
2018-05-02T02:10:42.114Z,1001.78
2018-05-02T02:11:42.137Z,1001.82
2018-05-02T02:12:42.157Z,1001.81
2018-05-02T02:13:42.243Z,1001.85
2018-05-02T02:14:42.159Z,1001.86
2018-05-02T02:15:42.152Z,1001.89
2018-05-02T02:16:42.170Z,1001.90
2018-05-02T02:17:42.172Z,1001.88
2018-05-02T02:18:42.192Z,1001.91
2018-05-02T02:19:42.248Z,1001.89
2018-05-02T02:20:42.257Z,1001.90
2018-05-02T02:21:42.207Z,1001.93
2018-05-02T02:23:42.212Z,1001.94
2018-05-02T02:24:42.311Z,1001.89
2018-05-02T02:26:42.299Z,1001.90
2018-05-02T02:27:42.241Z,1001.90
2018-05-02T02:28:42.243Z,1001.87
2018-05-02T02:29:42.284Z,1001.84
2018-05-02T02:30:42.265Z,1001.84
2018-05-02T02:31:42.331Z,1001.80
2018-05-02T02:32:42.327Z,1001.77
2018-05-02T02:33:42.337Z,1001.73
2018-05-02T02:34:42.323Z,1001.73
2018-05-02T02:35:42.328Z,1001.76
2018-05-02T02:36:42.348Z,1001.72
2018-05-02T02:37:42.361Z,1001.76
2018-05-02T02:38:42.362Z,1001.73
2018-05-02T02:39:42.323Z,1001.74
2018-05-02T02:41:42.338Z,1001.75
2018-05-02T02:42:42.414Z,1001.72
2018-05-02T02:43:42.447Z,1001.74
2018-05-02T02:44:42.415Z,1001.77
2018-05-02T02:45:42.413Z,1001.71
2018-05-02T02:46:42.422Z,1001.72
2018-05-02T02:47:42.382Z,1001.68
2018-05-02T02:48:42.389Z,1001.69
2018-05-02T02:49:42.435Z,1001.67
2018-05-02T02:50:42.403Z,1001.66
2018-05-02T02:51:42.409Z,1001.65
2018-05-02T02:52:42.473Z,1001.67
2018-05-02T02:53:42.418Z,1001.67
2018-05-02T02:54:42.453Z,1001.66
2018-05-02T02:55:42.483Z,1001.64
2018-05-02T02:56:42.470Z,1001.67
2018-05-02T02:57:42.524Z,1001.66
2018-05-02T02:58:42.469Z,1001.61
2018-05-02T02:59:42.599Z,1001.62
2018-05-02T03:00:42.597Z,1001.64
2018-05-02T03:02:42.524Z,1001.62
2018-05-02T03:03:42.543Z,1001.66
2018-05-02T03:04:42.574Z,1001.70
2018-05-02T03:05:42.527Z,1001.69
2018-05-02T03:06:42.560Z,1001.72
2018-05-02T03:08:42.552Z,1001.66
2018-05-02T03:09:42.563Z,1001.62
2018-05-02T03:10:42.568Z,1001.66
2018-05-02T03:11:42.666Z,1001.67
2018-05-02T03:12:42.598Z,1001.62
2018-05-02T03:13:42.605Z,1001.63
2018-05-02T03:14:42.681Z,1001.66
2018-05-02T03:15:42.602Z,1001.69
2018-05-02T03:16:42.611Z,1001.69
2018-05-02T03:17:42.609Z,1001.72
2018-05-02T03:18:42.624Z,1001.72
2018-05-02T03:19:42.626Z,1001.71
2018-05-02T03:20:42.665Z,1001.71
2018-05-02T03:21:42.662Z,1001.67
2018-05-02T03:22:42.643Z,1001.72
2018-05-02T03:23:42.671Z,1001.70
2018-05-02T03:24:42.661Z,1001.68
2018-05-02T03:25:42.697Z,1001.65
2018-05-02T03:26:42.661Z,1001.63
2018-05-02T03:27:42.729Z,1001.63
2018-05-02T03:28:42.676Z,1001.62
2018-05-02T03:29:42.787Z,1001.61
2018-05-02T03:31:42.750Z,1001.64
2018-05-02T03:32:42.716Z,1001.62
2018-05-02T03:33:42.726Z,1001.62
2018-05-02T03:34:42.757Z,1001.61
2018-05-02T03:35:42.781Z,1001.66
2018-05-02T03:36:42.741Z,1001.67
2018-05-02T03:37:42.749Z,1001.67
2018-05-02T03:38:42.786Z,1001.64
2018-05-02T03:39:42.784Z,1001.61
2018-05-02T03:40:42.777Z,1001.62
2018-05-02T03:41:42.788Z,1001.62
2018-05-02T03:44:42.830Z,1001.65
2018-05-02T03:45:42.807Z,1001.63
2018-05-02T03:46:42.824Z,1001.62
2018-05-02T03:47:42.826Z,1001.59
2018-05-02T03:48:42.898Z,1001.61
2018-05-02T03:49:42.824Z,1001.63
2018-05-02T03:50:42.850Z,1001.67
2018-05-02T03:51:42.895Z,1001.63
2018-05-02T03:52:42.868Z,1001.67
2018-05-02T03:53:42.855Z,1001.65
2018-05-02T03:54:42.874Z,1001.62
2018-05-02T03:55:42.893Z,1001.59
2018-05-02T03:56:42.896Z,1001.56
2018-05-02T03:57:42.901Z,1001.59
2018-05-02T03:58:42.941Z,1001.58
2018-05-02T03:59:42.911Z,1001.59
2018-05-02T04:00:42.922Z,1001.62
2018-05-02T04:01:42.917Z,1001.62
2018-05-02T04:02:42.932Z,1001.59
2018-05-02T04:03:42.979Z,1001.59
2018-05-02T04:04:42.935Z,1001.62
2018-05-02T04:05:43.001Z,1001.60
2018-05-02T04:06:43.042Z,1001.62
2018-05-02T04:07:43.051Z,1001.65
2018-05-02T04:08:43.011Z,1001.59
2018-05-02T04:09:42.992Z,1001.60
2018-05-02T04:10:43.088Z,1001.61
2018-05-02T04:11:43.021Z,1001.56
2018-05-02T04:12:43.008Z,1001.56
2018-05-02T04:13:43.050Z,1001.51
2018-05-02T04:14:43.037Z,1001.55
2018-05-02T04:15:43.059Z,1001.51
2018-05-02T04:16:43.050Z,1001.53
2018-05-02T04:17:43.075Z,1001.51
2018-05-02T04:18:43.096Z,1001.53
2018-05-02T04:19:43.044Z,1001.51
2018-05-02T04:20:43.100Z,1001.57
2018-05-02T04:21:43.109Z,1001.53
2018-05-02T04:22:43.223Z,1001.52
2018-05-02T04:23:43.222Z,1001.50
2018-05-02T04:24:43.160Z,1001.53
2018-05-02T04:25:43.130Z,1001.53
2018-05-02T04:26:43.136Z,1001.56
2018-05-02T04:27:43.145Z,1001.53
2018-05-02T04:28:43.354Z,1001.57
2018-05-02T04:29:43.159Z,1001.59
2018-05-02T04:30:43.201Z,1001.60
2018-05-02T04:31:43.136Z,1001.62
2018-05-02T04:32:43.184Z,1001.61
2018-05-02T04:33:43.333Z,1001.64
2018-05-02T04:34:43.197Z,1001.62
2018-05-02T04:35:43.179Z,1001.62
2018-05-02T04:36:43.191Z,1001.62
2018-05-02T04:37:43.209Z,1001.66
2018-05-02T04:38:43.261Z,1001.72
2018-05-02T04:39:43.228Z,1001.75
2018-05-02T04:40:43.236Z,1001.78
2018-05-02T04:41:43.598Z,1001.76
2018-05-02T04:42:43.285Z,1001.77
2018-05-02T04:43:43.231Z,1001.75
2018-05-02T04:45:43.368Z,1001.78
2018-05-02T04:46:43.260Z,1001.81
2018-05-02T04:47:43.311Z,1001.84
2018-05-02T04:48:43.262Z,1001.89
2018-05-02T04:49:43.275Z,1001.91
2018-05-02T04:50:43.343Z,1001.93
2018-05-02T04:51:43.359Z,1001.93
2018-05-02T04:52:43.351Z,1001.94
2018-05-02T04:53:43.307Z,1001.96
2018-05-02T04:54:43.317Z,1002.01
2018-05-02T04:55:43.316Z,1002.01
2018-05-02T04:56:43.322Z,1001.98
2018-05-02T04:57:43.344Z,1001.95
2018-05-02T04:58:43.334Z,1001.92
2018-05-02T04:59:43.406Z,1001.90
2018-05-02T05:00:43.360Z,1001.90
2018-05-02T05:01:43.416Z,1001.85
2018-05-02T05:02:43.382Z,1001.86
2018-05-02T05:03:43.431Z,1001.84
2018-05-02T05:04:43.442Z,1001.80
2018-05-02T05:05:43.389Z,1001.82
2018-05-02T05:07:43.448Z,1001.76
2018-05-02T05:08:43.437Z,1001.78
2018-05-02T05:09:43.428Z,1001.76
2018-05-02T05:10:43.503Z,1001.83
2018-05-02T05:11:43.437Z,1001.80
2018-05-02T05:12:43.610Z,1001.82
2018-05-02T05:14:43.549Z,1001.81
2018-05-02T05:15:43.571Z,1001.82
2018-05-02T05:16:43.476Z,1001.84
2018-05-02T05:17:43.560Z,1001.81
2018-05-02T05:18:43.612Z,1001.82
2018-05-02T05:19:43.502Z,1001.82
2018-05-02T05:20:43.507Z,1001.86
2018-05-02T05:21:43.518Z,1001.85
2018-05-02T05:22:43.521Z,1001.89
2018-05-02T05:23:43.541Z,1001.84
2018-05-02T05:24:43.566Z,1001.84
2018-05-02T05:25:43.577Z,1001.88
2018-05-02T05:26:43.561Z,1001.88
2018-05-02T05:27:43.609Z,1001.88
2018-05-02T05:28:43.605Z,1001.90
2018-05-02T05:29:43.600Z,1001.90
2018-05-02T05:30:43.610Z,1001.92
2018-05-02T05:31:43.688Z,1001.94
2018-05-02T05:32:43.618Z,1001.89
2018-05-02T05:33:43.634Z,1001.87
2018-05-02T05:34:43.633Z,1001.89
2018-05-02T05:35:43.652Z,1001.93
2018-05-02T05:36:43.633Z,1001.93
2018-05-02T05:38:43.645Z,1001.91
2018-05-02T05:39:43.671Z,1001.94
2018-05-02T05:40:43.717Z,1001.95
2018-05-02T05:41:43.684Z,1002.00
2018-05-02T05:42:43.707Z,1002.03
2018-05-02T05:43:43.686Z,1002.01
2018-05-02T05:44:43.749Z,1002.04
2018-05-02T05:45:43.699Z,1002.03
2018-05-02T05:46:43.711Z,1002.03
2018-05-02T05:47:43.841Z,1002.07
2018-05-02T05:48:43.720Z,1001.98
2018-05-02T05:49:43.765Z,1002.03
2018-05-02T05:50:43.758Z,1002.07
2018-05-02T05:51:43.764Z,1002.07
2018-05-02T05:52:43.889Z,1002.12
2018-05-02T05:53:43.776Z,1002.09
2018-05-02T05:54:43.791Z,1002.07
2018-05-02T05:55:43.792Z,1002.10
2018-05-02T05:56:43.890Z,1002.09
2018-05-02T05:57:43.804Z,1002.07
2018-05-02T05:58:43.814Z,1002.09
2018-05-02T05:59:43.935Z,1002.04
2018-05-02T06:00:43.909Z,1002.10
2018-05-02T06:01:43.835Z,1002.09
2018-05-02T06:02:43.847Z,1002.07
2018-05-02T06:03:43.845Z,1002.06
2018-05-02T06:04:43.957Z,1002.07
2018-05-02T06:05:43.930Z,1002.03
2018-05-02T06:06:44.064Z,1002.06
2018-05-02T06:08:43.887Z,1002.04
2018-05-02T06:09:43.963Z,1002.08
2018-05-02T06:10:43.961Z,1002.09
2018-05-02T06:11:43.932Z,1002.12
2018-05-02T06:12:43.982Z,1002.13
2018-05-02T06:13:43.940Z,1002.03
2018-05-02T06:14:43.950Z,1002.03
2018-05-02T06:15:43.943Z,1002.02
2018-05-02T06:16:43.986Z,1002.06
2018-05-02T06:17:44.139Z,1002.06
2018-05-02T06:18:44.036Z,1002.06
2018-05-02T06:19:43.976Z,1002.07
2018-05-02T06:20:44.053Z,1002.11
2018-05-02T06:21:44.028Z,1002.13
2018-05-02T06:22:44.022Z,1002.10
2018-05-02T06:23:44.034Z,1002.10
2018-05-02T06:24:44.042Z,1002.10
2018-05-02T06:25:44.046Z,1002.17
2018-05-02T06:26:44.040Z,1002.16
2018-05-02T06:27:44.119Z,1002.11
2018-05-02T06:28:44.076Z,1002.12
2018-05-02T06:29:44.069Z,1002.09
2018-05-02T06:30:44.070Z,1002.07
2018-05-02T06:31:44.272Z,1002.11
2018-05-02T06:32:44.213Z,1002.12
2018-05-02T06:33:44.127Z,1002.12
2018-05-02T06:34:44.108Z,1002.11
2018-05-02T06:35:44.106Z,1002.11
2018-05-02T06:36:44.134Z,1002.14
2018-05-02T06:37:44.247Z,1002.15
2018-05-02T06:38:44.199Z,1002.12
2018-05-02T06:39:44.162Z,1002.16
2018-05-02T06:40:44.162Z,1002.12
2018-05-02T06:41:44.196Z,1002.11
2018-05-02T06:42:44.181Z,1002.08
2018-05-02T06:43:44.186Z,1002.12
2018-05-02T06:44:44.232Z,1002.11
2018-05-02T06:45:44.208Z,1002.07
2018-05-02T06:46:44.199Z,1002.09
2018-05-02T06:47:44.226Z,1002.11
2018-05-02T06:48:44.226Z,1002.06
2018-05-02T06:49:44.268Z,1002.07
2018-05-02T06:50:44.255Z,1002.05
2018-05-02T06:51:44.333Z,1002.08
2018-05-02T06:52:44.282Z,1002.07
2018-05-02T06:53:44.273Z,1001.99
2018-05-02T06:54:44.354Z,1001.99
2018-05-02T06:55:44.322Z,1001.97
2018-05-02T06:56:44.355Z,1001.96
2018-05-02T06:57:44.343Z,1001.95
2018-05-02T06:58:44.326Z,1001.92
2018-05-02T06:59:44.342Z,1001.93
2018-05-02T07:00:44.359Z,1001.90
2018-05-02T07:01:44.408Z,1001.93
2018-05-02T07:02:44.419Z,1001.94
2018-05-02T07:04:44.380Z,1001.91
2018-05-02T07:05:44.390Z,1001.92
2018-05-02T07:06:44.438Z,1001.89
2018-05-02T07:07:44.439Z,1001.91
2018-05-02T07:08:44.407Z,1001.89
2018-05-02T07:09:44.510Z,1001.84
2018-05-02T07:10:44.472Z,1001.85
2018-05-02T07:11:44.473Z,1001.80
2018-05-02T07:12:44.458Z,1001.84
2018-05-02T07:13:44.517Z,1001.77
2018-05-02T07:14:44.493Z,1001.76
2018-05-02T07:15:44.482Z,1001.78
2018-05-02T07:16:44.504Z,1001.73
2018-05-02T07:17:44.522Z,1001.73
2018-05-02T07:18:44.617Z,1001.72
2018-05-02T07:19:44.709Z,1001.68
2018-05-02T07:20:44.560Z,1001.65
2018-05-02T07:21:44.535Z,1001.62
2018-05-02T07:22:44.595Z,1001.68
2018-05-02T07:23:44.555Z,1001.65
2018-05-02T07:24:44.827Z,1001.71
2018-05-02T07:25:44.616Z,1001.70
2018-05-02T07:26:44.622Z,1001.71
2018-05-02T07:27:44.595Z,1001.67
2018-05-02T07:28:44.650Z,1001.64
2018-05-02T07:29:44.623Z,1001.61
2018-05-02T07:30:44.636Z,1001.66
2018-05-02T07:31:44.647Z,1001.60
2018-05-02T07:32:44.782Z,1001.58
2018-05-02T07:33:44.673Z,1001.52
2018-05-02T07:34:44.673Z,1001.50
2018-05-02T07:35:44.706Z,1001.51
2018-05-02T07:36:44.689Z,1001.52
2018-05-02T07:37:44.703Z,1001.50
2018-05-02T07:38:44.709Z,1001.48
2018-05-02T07:39:44.853Z,1001.48
2018-05-02T07:40:44.763Z,1001.51
2018-05-02T07:41:44.744Z,1001.55
2018-05-02T07:42:44.838Z,1001.58
2018-05-02T07:43:44.783Z,1001.59
2018-05-02T07:44:44.773Z,1001.58
2018-05-02T07:45:44.795Z,1001.60
2018-05-02T07:46:44.923Z,1001.54
2018-05-02T07:47:44.962Z,1001.55
2018-05-02T07:48:44.845Z,1001.55
2018-05-02T07:49:44.923Z,1001.57
2018-05-02T07:50:44.881Z,1001.57
2018-05-02T07:51:44.953Z,1001.59
2018-05-02T07:52:44.874Z,1001.59
2018-05-02T07:53:44.871Z,1001.56
2018-05-02T07:54:44.955Z,1001.54
2018-05-02T07:56:44.894Z,1001.53
2018-05-02T07:57:44.927Z,1001.49
2018-05-02T07:58:44.933Z,1001.48
2018-05-02T07:59:44.994Z,1001.50
2018-05-02T08:00:44.976Z,1001.52
2018-05-02T08:01:45.168Z,1001.51
2018-05-02T08:02:44.962Z,1001.47
2018-05-02T08:03:45.001Z,1001.44
2018-05-02T08:04:44.986Z,1001.49
2018-05-02T08:05:45.016Z,1001.45
2018-05-02T08:06:45.048Z,1001.43
2018-05-02T08:07:45.031Z,1001.43
2018-05-02T08:08:45.022Z,1001.46
2018-05-02T08:09:45.050Z,1001.46
2018-05-02T08:10:45.087Z,1001.45
2018-05-02T08:11:45.069Z,1001.49
2018-05-02T08:12:45.172Z,1001.45
2018-05-02T08:13:45.104Z,1001.45
2018-05-02T08:14:45.282Z,1001.44
2018-05-02T08:15:45.124Z,1001.41
2018-05-02T08:16:45.162Z,1001.43
2018-05-02T08:18:45.194Z,1001.42
2018-05-02T08:19:45.153Z,1001.38
2018-05-02T08:20:45.174Z,1001.39
2018-05-02T08:21:45.192Z,1001.36
2018-05-02T08:22:45.222Z,1001.38
2018-05-02T08:23:45.284Z,1001.41
2018-05-02T08:24:45.241Z,1001.36
2018-05-02T08:25:45.291Z,1001.35
2018-05-02T08:26:45.240Z,1001.35
2018-05-02T08:27:45.320Z,1001.34
2018-05-02T08:28:45.363Z,1001.34
2018-05-02T08:29:45.271Z,1001.24
2018-05-02T08:30:45.308Z,1001.28
2018-05-02T08:31:45.346Z,1001.24
2018-05-02T08:32:45.357Z,1001.27
2018-05-02T08:33:45.426Z,1001.27
2018-05-02T08:34:45.442Z,1001.28
2018-05-02T08:35:45.429Z,1001.28
2018-05-02T08:36:45.484Z,1001.25
2018-05-02T08:37:45.362Z,1001.26
2018-05-02T08:38:45.407Z,1001.28
2018-05-02T08:39:45.420Z,1001.29
2018-05-02T08:40:45.384Z,1001.30
2018-05-02T08:41:45.475Z,1001.29
2018-05-02T08:42:45.438Z,1001.34
2018-05-02T08:43:45.503Z,1001.33
2018-05-02T08:44:45.447Z,1001.35
2018-05-02T08:45:45.484Z,1001.31
2018-05-02T08:46:45.539Z,1001.30
2018-05-02T08:47:45.502Z,1001.27
2018-05-02T08:48:45.505Z,1001.25
2018-05-02T08:49:45.508Z,1001.27
2018-05-02T08:50:45.556Z,1001.28
2018-05-02T08:51:45.539Z,1001.27
2018-05-02T08:52:45.590Z,1001.26
2018-05-02T08:53:45.652Z,1001.26
2018-05-02T08:54:45.552Z,1001.31
2018-05-02T08:55:45.565Z,1001.26
2018-05-02T08:57:45.614Z,1001.27
2018-05-02T08:58:45.654Z,1001.22
2018-05-02T08:59:45.684Z,1001.28
2018-05-02T09:00:45.659Z,1001.22
2018-05-02T09:01:45.761Z,1001.25
2018-05-02T09:02:45.657Z,1001.25
2018-05-02T09:03:45.764Z,1001.30
2018-05-02T09:04:45.741Z,1001.26
2018-05-02T09:05:45.691Z,1001.26
2018-05-02T09:06:45.746Z,1001.25
2018-05-02T09:07:45.717Z,1001.26
2018-05-02T09:08:45.825Z,1001.22
2018-05-02T09:09:45.820Z,1001.22
2018-05-02T09:10:45.758Z,1001.24
2018-05-02T09:11:45.776Z,1001.21
2018-05-02T09:12:45.786Z,1001.19
2018-05-02T09:13:45.827Z,1001.24
2018-05-02T09:14:45.882Z,1001.24
2018-05-02T09:15:45.831Z,1001.26
2018-05-02T09:16:45.835Z,1001.24
2018-05-02T09:17:45.876Z,1001.26
2018-05-02T09:18:45.849Z,1001.21
2018-05-02T09:19:45.920Z,1001.19
2018-05-02T09:20:45.922Z,1001.19
2018-05-02T09:21:45.977Z,1001.18
2018-05-02T09:22:45.940Z,1001.18
2018-05-02T09:23:45.957Z,1001.12
2018-05-02T09:24:46.055Z,1001.13
2018-05-02T09:25:45.957Z,1001.16
2018-05-02T09:26:45.960Z,1001.15
2018-05-02T09:27:45.986Z,1001.12
2018-05-02T09:28:45.990Z,1001.14
2018-05-02T09:29:45.979Z,1001.11
2018-05-02T09:31:46.058Z,1001.09
2018-05-02T09:32:46.030Z,1001.06
2018-05-02T09:33:46.077Z,1001.11
2018-05-02T09:34:46.107Z,1001.05
2018-05-02T09:35:46.078Z,1001.04
2018-05-02T09:36:46.163Z,1001.08
2018-05-02T09:37:46.093Z,1001.08
2018-05-02T09:38:46.107Z,1001.03
2018-05-02T09:39:46.112Z,1001.06
2018-05-02T09:40:46.167Z,1001.07
2018-05-02T09:41:46.430Z,1001.06
2018-05-02T09:43:46.188Z,1001.04
2018-05-02T09:44:46.192Z,1001.06
2018-05-02T09:45:46.194Z,1001.08
2018-05-02T09:46:46.212Z,1001.00
2018-05-02T09:47:46.255Z,1001.02
2018-05-02T09:48:46.335Z,1000.98
2018-05-02T09:50:46.356Z,1000.95
2018-05-02T09:51:46.357Z,1000.94
2018-05-02T09:52:46.382Z,1000.92
2018-05-02T09:53:46.353Z,1000.91
2018-05-02T09:54:46.458Z,1000.92
2018-05-02T09:55:46.333Z,1000.93
2018-05-02T09:56:46.382Z,1000.93
2018-05-02T09:57:46.438Z,1000.92
2018-05-02T09:58:46.361Z,1000.95
2018-05-02T09:59:46.401Z,1000.90
2018-05-02T10:00:46.402Z,1000.92
2018-05-02T10:01:46.410Z,1000.91
2018-05-02T10:02:46.458Z,1000.89
2018-05-02T10:03:46.437Z,1000.85
2018-05-02T10:04:46.453Z,1000.85
2018-05-02T10:05:46.545Z,1000.86
2018-05-02T10:06:46.497Z,1000.87
2018-05-02T10:07:46.501Z,1000.86
2018-05-02T10:08:46.614Z,1000.83
2018-05-02T10:09:46.603Z,1000.85
2018-05-02T10:10:46.575Z,1000.85
2018-05-02T10:11:46.660Z,1000.84
2018-05-02T10:12:46.753Z,1000.82
2018-05-02T10:13:46.607Z,1000.82
2018-05-02T10:14:46.718Z,1000.85
2018-05-02T10:15:46.611Z,1000.78
2018-05-02T10:16:46.616Z,1000.83
2018-05-02T10:17:46.849Z,1000.81
2018-05-02T10:18:46.651Z,1000.78
2018-05-02T10:19:46.887Z,1000.82
2018-05-02T10:20:46.908Z,1000.84
2018-05-02T10:21:46.704Z,1000.84
2018-05-02T10:22:46.788Z,1000.81
2018-05-02T10:23:46.850Z,1000.79
2018-05-02T10:24:46.773Z,1000.79
2018-05-02T10:25:46.760Z,1000.77
2018-05-02T10:26:46.867Z,1000.77
2018-05-02T10:27:46.846Z,1000.71
2018-05-02T10:28:46.800Z,1000.74
2018-05-02T10:29:46.839Z,1000.79
2018-05-02T10:30:46.911Z,1000.70
2018-05-02T10:32:46.846Z,1000.69
2018-05-02T10:33:46.858Z,1000.65
2018-05-02T10:34:46.950Z,1000.62
2018-05-02T10:35:46.958Z,1000.62
2018-05-02T10:36:46.962Z,1000.61
2018-05-02T10:37:46.987Z,1000.61
2018-05-02T10:38:46.980Z,1000.62
2018-05-02T10:39:46.987Z,1000.59
2018-05-02T10:40:46.947Z,1000.59
2018-05-02T10:41:47.024Z,1000.58
2018-05-02T10:42:47.066Z,1000.60
2018-05-02T10:43:47.020Z,1000.57
2018-05-02T10:44:47.084Z,1000.57
2018-05-02T10:46:47.033Z,1000.45
2018-05-02T10:48:47.061Z,1000.44
2018-05-02T10:49:47.087Z,1000.41
2018-05-02T10:50:47.077Z,1000.43
2018-05-02T10:51:47.125Z,1000.45
2018-05-02T10:52:47.256Z,1000.42
2018-05-02T10:53:47.145Z,1000.37
2018-05-02T10:54:47.288Z,1000.39
2018-05-02T10:55:47.285Z,1000.31
2018-05-02T10:56:47.264Z,1000.33
2018-05-02T10:57:47.180Z,1000.31
2018-05-02T10:58:47.227Z,1000.32
2018-05-02T10:59:47.208Z,1000.29
2018-05-02T11:00:47.256Z,1000.31
2018-05-02T11:01:47.244Z,1000.31
2018-05-02T11:02:47.318Z,1000.30
2018-05-02T11:03:47.342Z,1000.28
2018-05-02T11:04:47.381Z,1000.29
2018-05-02T11:05:47.279Z,1000.36
2018-05-02T11:06:47.305Z,1000.38
2018-05-02T11:07:47.347Z,1000.27
2018-05-02T11:08:47.360Z,1000.28
2018-05-02T11:09:47.387Z,1000.30
2018-05-02T11:10:47.427Z,1000.32
2018-05-02T11:11:47.379Z,1000.33
2018-05-02T11:12:47.443Z,1000.34
2018-05-02T11:13:47.459Z,1000.32
2018-05-02T11:14:47.429Z,1000.31
2018-05-02T11:15:47.454Z,1000.28
2018-05-02T11:16:47.440Z,1000.28
2018-05-02T11:17:47.534Z,1000.27
2018-05-02T11:19:47.540Z,1000.23
2018-05-02T11:20:47.544Z,1000.24
2018-05-02T11:21:47.568Z,1000.27
2018-05-02T11:22:47.540Z,1000.26
2018-05-02T11:23:47.585Z,1000.23
2018-05-02T11:24:47.579Z,1000.13
2018-05-02T11:25:47.630Z,1000.16
2018-05-02T11:26:47.648Z,1000.15
2018-05-02T11:27:47.642Z,1000.14
2018-05-02T11:28:47.611Z,1000.16
2018-05-02T11:29:47.635Z,1000.17
2018-05-02T11:30:47.636Z,1000.15
2018-05-02T11:31:47.806Z,1000.14
2018-05-02T11:32:47.676Z,1000.12
2018-05-02T11:33:47.714Z,1000.10
2018-05-02T11:34:47.806Z,1000.12
2018-05-02T11:35:47.807Z,1000.09
2018-05-02T11:36:47.765Z,1000.08
2018-05-02T11:38:47.776Z,1000.11
2018-05-02T11:40:47.846Z,1000.15
2018-05-02T11:41:47.831Z,1000.08
2018-05-02T11:42:47.834Z,1000.06
2018-05-02T11:43:47.865Z,1000.05
2018-05-02T11:44:47.889Z,1000.04
2018-05-02T11:45:47.891Z,1000.09
2018-05-02T11:46:47.904Z,1000.08
2018-05-02T11:47:47.980Z,1000.10
2018-05-02T11:48:47.966Z,1000.13
2018-05-02T11:49:47.969Z,1000.13
2018-05-02T11:50:47.994Z,1000.15
2018-05-02T11:51:48.012Z,1000.14
2018-05-02T11:52:48.022Z,1000.12
2018-05-02T11:53:48.111Z,1000.07
2018-05-02T11:54:48.009Z,1000.06
2018-05-02T11:55:48.040Z,1000.03
2018-05-02T11:56:48.104Z,1000.00
2018-05-02T11:57:48.106Z,1000.01
2018-05-02T11:58:48.074Z,1000.02
2018-05-02T11:59:48.083Z,1000.06
2018-05-02T12:00:48.116Z,1000.02
2018-05-02T12:01:48.169Z,1000.04
2018-05-02T12:02:48.177Z,1000.00
2018-05-02T12:03:48.172Z,999.95
2018-05-02T12:04:48.221Z,999.95
2018-05-02T12:05:48.291Z,999.98
2018-05-02T12:06:48.233Z,999.97
2018-05-02T12:07:48.200Z,999.97
2018-05-02T12:08:48.322Z,999.95
2018-05-02T12:09:48.429Z,999.92
2018-05-02T12:10:48.477Z,999.93
2018-05-02T12:11:48.334Z,999.91
2018-05-02T12:12:48.551Z,999.86
2018-05-02T12:13:48.323Z,999.88
2018-05-02T12:14:48.451Z,999.87
2018-05-02T12:15:48.394Z,999.91
2018-05-02T12:16:48.364Z,999.87
2018-05-02T12:17:48.468Z,999.89
2018-05-02T12:18:48.392Z,999.90
2018-05-02T12:19:48.497Z,999.92
2018-05-02T12:20:48.480Z,999.87
2018-05-02T12:21:48.508Z,999.89
2018-05-02T12:22:48.467Z,999.87
2018-05-02T12:23:48.544Z,999.90
2018-05-02T12:24:48.519Z,999.85
2018-05-02T12:25:48.491Z,999.80
2018-05-02T12:26:48.496Z,999.72
2018-05-02T12:27:48.556Z,999.78
2018-05-02T12:29:48.606Z,999.78
2018-05-02T12:30:48.784Z,999.79
2018-05-02T12:31:48.643Z,999.82
2018-05-02T12:32:48.611Z,999.81
2018-05-02T12:33:48.616Z,999.86
2018-05-02T12:34:48.689Z,999.83
2018-05-02T12:35:48.684Z,999.89
2018-05-02T12:36:48.702Z,999.86
2018-05-02T12:37:48.680Z,999.88